createdAt,value
2018-02-09T00:01:03.069Z,0
2018-02-09T00:02:02.908Z,0
2018-02-09T00:03:03.371Z,0
2018-02-09T00:04:03.525Z,0
2018-02-09T00:05:03.678Z,0
2018-02-09T00:06:03.381Z,0
2018-02-09T00:07:03.949Z,0
2018-02-09T00:08:04.316Z,0
2018-02-09T00:09:04.407Z,0
2018-02-09T00:10:04.523Z,0
2018-02-09T00:11:04.459Z,0
2018-02-09T00:12:04.506Z,0
2018-02-09T00:13:04.274Z,0
2018-02-09T00:14:04.375Z,0
2018-02-09T00:15:04.310Z,0
2018-02-09T00:16:04.137Z,0
2018-02-09T00:17:05.140Z,0
2018-02-09T00:18:04.902Z,0
2018-02-09T00:19:04.679Z,0
2018-02-09T00:20:04.932Z,0
2018-02-09T00:21:04.903Z,0
2018-02-09T00:22:04.904Z,0
2018-02-09T00:23:05.138Z,0
2018-02-09T00:24:04.818Z,0
2018-02-09T00:25:05.020Z,0
2018-02-09T00:26:05.259Z,0
2018-02-09T00:27:05.507Z,0
2018-02-09T00:28:05.176Z,0
2018-02-09T00:29:05.210Z,0
2018-02-09T00:30:05.703Z,0
2018-02-09T00:31:06.140Z,0
2018-02-09T00:32:05.643Z,0
2018-02-09T00:33:06.687Z,0
2018-02-09T00:34:05.895Z,0
2018-02-09T00:35:05.814Z,0
2018-02-09T00:36:05.922Z,0
2018-02-09T00:37:06.388Z,0
2018-02-09T00:38:06.440Z,0
2018-02-09T00:39:06.452Z,0
2018-02-09T00:40:07.268Z,0
2018-02-09T00:41:06.527Z,0
2018-02-09T00:42:06.963Z,0
2018-02-09T00:43:06.740Z,0
2018-02-09T00:44:06.998Z,0
2018-02-09T00:45:07.316Z,0
2018-02-09T00:46:06.332Z,0
2018-02-09T00:47:06.907Z,0
2018-02-09T00:48:06.858Z,0
2018-02-09T00:49:06.920Z,0
2018-02-09T00:50:07.014Z,0
2018-02-09T00:51:07.767Z,0
2018-02-09T00:52:07.751Z,0
2018-02-09T00:53:07.138Z,0
2018-02-09T00:54:07.996Z,0
2018-02-09T00:55:07.173Z,0
2018-02-09T00:56:07.729Z,0
2018-02-09T00:57:07.904Z,0
2018-02-09T00:58:07.752Z,0
2018-02-09T00:59:08.222Z,0
2018-02-09T01:00:07.225Z,0
2018-02-09T01:01:08.091Z,0
2018-02-09T01:02:07.734Z,0
2018-02-09T01:03:08.026Z,0
2018-02-09T01:04:08.443Z,0
2018-02-09T01:05:08.574Z,0
2018-02-09T01:06:08.707Z,0
2018-02-09T01:07:08.766Z,0
2018-02-09T01:08:08.892Z,0
2018-02-09T01:09:09.190Z,0
2018-02-09T01:10:09.124Z,0
2018-02-09T01:11:09.119Z,0
2018-02-09T01:12:09.885Z,0
2018-02-09T01:13:08.974Z,0
2018-02-09T01:14:09.576Z,0
2018-02-09T01:15:10.189Z,0
2018-02-09T01:16:09.985Z,0
2018-02-09T01:17:10.264Z,0
2018-02-09T01:18:10.131Z,0
2018-02-09T01:19:10.508Z,0
2018-02-09T01:20:09.736Z,0
2018-02-09T01:21:09.876Z,0
2018-02-09T01:22:10.348Z,0
2018-02-09T01:23:10.201Z,0
2018-02-09T01:24:10.517Z,0
2018-02-09T01:25:09.976Z,0
2018-02-09T01:26:10.669Z,0
2018-02-09T01:27:11.109Z,0
2018-02-09T01:28:10.856Z,0
2018-02-09T01:29:11.058Z,0
2018-02-09T01:30:11.546Z,0
2018-02-09T01:31:11.448Z,0
2018-02-09T01:32:11.982Z,0
2018-02-09T01:33:12.160Z,0
2018-02-09T01:34:12.300Z,0
2018-02-09T01:35:12.430Z,0
2018-02-09T01:36:13.030Z,0
2018-02-09T01:37:13.058Z,0
2018-02-09T01:38:12.928Z,0
2018-02-09T01:39:13.188Z,0
2018-02-09T01:40:13.086Z,0
2018-02-09T01:41:13.610Z,0
2018-02-09T01:42:13.272Z,0
2018-02-09T01:43:13.748Z,0
2018-02-09T01:44:14.134Z,0
2018-02-09T01:45:14.584Z,0
2018-02-09T01:46:14.381Z,0
2018-02-09T01:47:14.315Z,0
2018-02-09T01:48:14.512Z,0
2018-02-09T01:49:15.052Z,0
2018-02-09T01:50:15.290Z,0
2018-02-09T01:51:14.762Z,0
2018-02-09T01:52:15.059Z,0
2018-02-09T01:53:15.687Z,0
2018-02-09T01:54:15.694Z,0
2018-02-09T01:55:15.836Z,0
2018-02-09T01:56:15.926Z,0
2018-02-09T01:57:16.625Z,0
2018-02-09T01:58:16.085Z,0
2018-02-09T01:59:16.380Z,0
2018-02-09T02:00:16.725Z,0
2018-02-09T02:01:17.122Z,0
2018-02-09T02:02:17.776Z,0
2018-02-09T02:03:17.829Z,0
2018-02-09T02:04:17.954Z,0
2018-02-09T02:05:17.822Z,0
2018-02-09T02:06:18.058Z,0
2018-02-09T02:07:18.116Z,0
2018-02-09T02:08:17.857Z,0
2018-02-09T02:09:17.997Z,0
2018-02-09T02:10:18.283Z,0
2018-02-09T02:11:18.683Z,0
2018-02-09T02:12:18.170Z,0
2018-02-09T02:13:18.836Z,0
2018-02-09T02:14:18.985Z,0
2018-02-09T02:15:19.316Z,0
2018-02-09T02:16:19.893Z,0
2018-02-09T02:17:20.294Z,0
2018-02-09T02:18:20.454Z,0
2018-02-09T02:19:20.565Z,0
2018-02-09T02:20:20.213Z,0
2018-02-09T02:21:20.092Z,0
2018-02-09T02:22:20.902Z,0
2018-02-09T02:23:20.557Z,0
2018-02-09T02:24:20.725Z,0
2018-02-09T02:25:20.833Z,0
2018-02-09T02:26:21.108Z,0
2018-02-09T02:27:21.741Z,0
2018-02-09T02:28:21.864Z,0
2018-02-09T02:29:21.868Z,0
2018-02-09T02:30:21.959Z,0
2018-02-09T02:31:21.805Z,0
2018-02-09T02:32:21.927Z,0
2018-02-09T02:33:22.377Z,0
2018-02-09T02:34:22.793Z,0
2018-02-09T02:35:22.869Z,0
2018-02-09T02:36:22.794Z,0
2018-02-09T02:37:22.677Z,0
2018-02-09T02:38:22.980Z,0
2018-02-09T02:39:23.087Z,0
2018-02-09T02:40:23.278Z,0
2018-02-09T02:41:23.264Z,0
2018-02-09T02:42:23.558Z,0
2018-02-09T02:43:23.588Z,0
2018-02-09T02:44:23.696Z,0
2018-02-09T02:45:23.854Z,0
2018-02-09T02:46:24.718Z,0
2018-02-09T02:47:25.125Z,0
2018-02-09T02:48:25.554Z,0
2018-02-09T02:49:24.527Z,0
2018-02-09T02:50:24.457Z,0
2018-02-09T02:51:24.312Z,0
2018-02-09T02:52:24.418Z,0
2018-02-09T02:53:24.451Z,0
2018-02-09T02:54:24.707Z,0
2018-02-09T02:55:25.009Z,0
2018-02-09T02:56:24.741Z,0
2018-02-09T02:57:24.896Z,0
2018-02-09T02:58:25.452Z,0
2018-02-09T02:59:25.234Z,0
2018-02-09T03:00:25.758Z,0
2018-02-09T03:01:26.088Z,0
2018-02-09T03:02:25.683Z,0
2018-02-09T03:03:25.853Z,0
2018-02-09T03:04:25.834Z,0
2018-02-09T03:05:25.443Z,0
2018-02-09T03:06:25.794Z,0
2018-02-09T03:07:26.301Z,0
2018-02-09T03:08:26.188Z,0
2018-02-09T03:09:26.224Z,0
2018-02-09T03:10:26.495Z,0
2018-02-09T03:11:26.374Z,0
2018-02-09T03:12:26.890Z,0
2018-02-09T03:13:26.386Z,0
2018-02-09T03:14:26.724Z,0
2018-02-09T03:15:26.926Z,0
2018-02-09T03:16:27.405Z,0
2018-02-09T03:17:26.665Z,0
2018-02-09T03:18:26.991Z,0
2018-02-09T03:19:27.200Z,0
2018-02-09T03:20:27.234Z,0
2018-02-09T03:21:27.301Z,0
2018-02-09T03:22:26.995Z,0
2018-02-09T03:23:27.536Z,0
2018-02-09T03:24:27.922Z,0
2018-02-09T03:25:27.131Z,0
2018-02-09T03:26:27.692Z,0
2018-02-09T03:27:28.103Z,0
2018-02-09T03:28:28.394Z,0
2018-02-09T03:29:28.600Z,0
2018-02-09T03:30:28.631Z,0
2018-02-09T03:31:28.396Z,0
2018-02-09T03:32:28.403Z,0
2018-02-09T03:33:28.860Z,0
2018-02-09T03:34:28.792Z,0
2018-02-09T03:35:29.303Z,0
2018-02-09T03:36:29.054Z,0
2018-02-09T03:37:29.724Z,0
2018-02-09T03:38:29.618Z,0
2018-02-09T03:39:29.587Z,0
2018-02-09T03:40:30.238Z,0
2018-02-09T03:41:29.702Z,0
2018-02-09T03:42:29.729Z,0
2018-02-09T03:43:30.103Z,0
2018-02-09T03:44:29.621Z,0
2018-02-09T03:45:30.242Z,0
2018-02-09T03:46:30.645Z,0
2018-02-09T03:47:30.356Z,0
2018-02-09T03:48:30.632Z,0
2018-02-09T03:49:31.013Z,0
2018-02-09T03:50:31.412Z,0
2018-02-09T03:51:31.177Z,0
2018-02-09T03:52:31.167Z,0
2018-02-09T03:53:31.025Z,0
2018-02-09T03:54:31.551Z,0
2018-02-09T03:55:31.073Z,0
2018-02-09T03:56:31.059Z,0
2018-02-09T03:57:31.763Z,0
2018-02-09T03:58:31.152Z,0
2018-02-09T03:59:31.217Z,0
2018-02-09T04:00:31.778Z,0
2018-02-09T04:01:31.789Z,0
2018-02-09T04:02:31.537Z,0
2018-02-09T04:03:31.713Z,0
2018-02-09T04:04:31.933Z,0
2018-02-09T04:05:31.627Z,0
2018-02-09T04:06:31.684Z,0
2018-02-09T04:07:31.955Z,0
2018-02-09T04:08:32.451Z,0
2018-02-09T04:09:32.310Z,0
2018-02-09T04:10:32.630Z,0
2018-02-09T04:11:32.612Z,0
2018-02-09T04:12:32.738Z,0
2018-02-09T04:13:33.067Z,0
2018-02-09T04:14:33.859Z,0
2018-02-09T04:15:33.115Z,0
2018-02-09T04:16:33.338Z,0
2018-02-09T04:17:33.351Z,0
2018-02-09T04:18:33.299Z,0
2018-02-09T04:19:33.438Z,0
2018-02-09T04:20:34.142Z,0
2018-02-09T04:21:33.917Z,0
2018-02-09T04:22:33.610Z,0
2018-02-09T04:23:33.874Z,0
2018-02-09T04:24:33.627Z,0
2018-02-09T04:25:34.181Z,0
2018-02-09T04:26:34.171Z,0
2018-02-09T04:27:34.608Z,0
2018-02-09T04:28:34.326Z,0
2018-02-09T04:29:34.826Z,0
2018-02-09T04:30:34.061Z,0
2018-02-09T04:31:34.094Z,0
2018-02-09T04:32:34.222Z,0
2018-02-09T04:33:34.256Z,0
2018-02-09T04:34:34.516Z,0
2018-02-09T04:35:34.792Z,0
2018-02-09T04:36:36.209Z,0
2018-02-09T04:37:35.926Z,0
2018-02-09T04:38:36.210Z,0
2018-02-09T04:39:35.555Z,0
2018-02-09T04:40:35.740Z,0
2018-02-09T04:41:37.561Z,0
2018-02-09T04:42:36.526Z,0
2018-02-09T04:43:36.503Z,0
2018-02-09T04:44:36.875Z,0
2018-02-09T04:45:36.264Z,0
2018-02-09T04:46:36.872Z,0
2018-02-09T04:47:36.389Z,0
2018-02-09T04:48:36.845Z,0
2018-02-09T04:49:36.838Z,0
2018-02-09T04:50:36.859Z,0
2018-02-09T04:51:36.888Z,0
2018-02-09T04:52:37.029Z,0
2018-02-09T04:53:36.676Z,0
2018-02-09T04:54:36.570Z,0
2018-02-09T04:55:36.597Z,0
2018-02-09T04:56:37.333Z,0
2018-02-09T04:57:37.257Z,0
2018-02-09T04:58:37.288Z,0
2018-02-09T04:59:37.159Z,0
2018-02-09T05:00:37.864Z,0
2018-02-09T05:01:37.602Z,0
2018-02-09T05:02:37.911Z,0
2018-02-09T05:03:38.293Z,0
2018-02-09T05:04:38.462Z,0
2018-02-09T05:05:37.970Z,0
2018-02-09T05:06:38.119Z,0
2018-02-09T05:07:37.980Z,0
2018-02-09T05:08:38.067Z,0
2018-02-09T05:09:38.872Z,0
2018-02-09T05:10:38.344Z,0
2018-02-09T05:11:38.642Z,0
2018-02-09T05:12:38.392Z,0
2018-02-09T05:13:38.379Z,0
2018-02-09T05:14:38.883Z,0
2018-02-09T05:15:38.898Z,0
2018-02-09T05:16:39.493Z,0
2018-02-09T05:17:39.364Z,0
2018-02-09T05:18:38.827Z,0
2018-02-09T05:19:39.142Z,0
2018-02-09T05:20:39.093Z,0
2018-02-09T05:21:39.589Z,0
2018-02-09T05:22:39.932Z,0
2018-02-09T05:23:39.976Z,0
2018-02-09T05:24:40.141Z,0
2018-02-09T05:25:40.479Z,0
2018-02-09T05:26:40.585Z,0
2018-02-09T05:27:40.988Z,0
2018-02-09T05:28:40.630Z,0
2018-02-09T05:29:40.650Z,0
2018-02-09T05:30:40.910Z,0
2018-02-09T05:31:41.504Z,0
2018-02-09T05:32:41.581Z,0
2018-02-09T05:33:41.409Z,0
2018-02-09T05:34:41.243Z,0
2018-02-09T05:35:41.478Z,0
2018-02-09T05:36:41.753Z,0
2018-02-09T05:37:41.911Z,0
2018-02-09T05:38:42.435Z,0
2018-02-09T05:39:42.836Z,0
2018-02-09T05:40:42.960Z,0
2018-02-09T05:41:42.691Z,0
2018-02-09T05:42:42.798Z,0
2018-02-09T05:43:42.822Z,0
2018-02-09T05:44:43.440Z,0
2018-02-09T05:45:42.658Z,0
2018-02-09T05:46:43.449Z,0
2018-02-09T05:47:43.451Z,0
2018-02-09T05:48:43.327Z,0
2018-02-09T05:49:44.209Z,0
2018-02-09T05:50:43.625Z,0
2018-02-09T05:51:44.332Z,0
2018-02-09T05:52:44.038Z,0
2018-02-09T05:53:44.483Z,0
2018-02-09T05:54:44.701Z,0
2018-02-09T05:55:44.354Z,0
2018-02-09T05:56:45.035Z,0
2018-02-09T05:57:45.252Z,0
2018-02-09T05:58:44.798Z,0
2018-02-09T05:59:45.429Z,0
2018-02-09T06:00:44.974Z,0
2018-02-09T06:01:45.461Z,0
2018-02-09T06:02:45.488Z,0
2018-02-09T06:03:45.545Z,0
2018-02-09T06:04:45.105Z,0
2018-02-09T06:05:46.191Z,0
2018-02-09T06:06:45.950Z,4
2018-02-09T06:07:46.002Z,4
2018-02-09T06:08:46.295Z,0
2018-02-09T06:09:46.754Z,4
2018-02-09T06:10:47.350Z,4
2018-02-09T06:11:46.878Z,4
2018-02-09T06:12:46.767Z,4
2018-02-09T06:13:46.703Z,4
2018-02-09T06:14:46.816Z,4
2018-02-09T06:15:46.136Z,8
2018-02-09T06:16:47.500Z,8
2018-02-09T06:17:46.541Z,8
2018-02-09T06:18:47.316Z,12
2018-02-09T06:19:46.912Z,12
2018-02-09T06:20:46.617Z,16
2018-02-09T06:21:46.867Z,16
2018-02-09T06:22:47.204Z,20
2018-02-09T06:23:46.645Z,20
2018-02-09T06:24:47.473Z,24
2018-02-09T06:25:47.355Z,24
2018-02-09T06:26:47.519Z,28
2018-02-09T06:27:47.749Z,36
2018-02-09T06:28:47.728Z,40
2018-02-09T06:29:47.812Z,40
2018-02-09T06:30:47.508Z,44
2018-02-09T06:31:47.661Z,48
2018-02-09T06:32:47.851Z,56
2018-02-09T06:33:48.093Z,60
2018-02-09T06:34:47.978Z,60
2018-02-09T06:35:48.125Z,68
2018-02-09T06:36:48.314Z,72
2018-02-09T06:37:47.844Z,76
2018-02-09T06:38:48.486Z,84
2018-02-09T06:39:47.880Z,92
2018-02-09T06:40:48.655Z,96
2018-02-09T06:41:48.224Z,104
2018-02-09T06:42:47.951Z,112
2018-02-09T06:43:48.080Z,120
2018-02-09T06:44:48.390Z,128
2018-02-09T06:45:48.623Z,140
2018-02-09T06:46:48.628Z,148
2018-02-09T06:47:48.540Z,152
2018-02-09T06:48:48.691Z,160
2018-02-09T06:49:48.434Z,164
2018-02-09T06:50:49.416Z,172
2018-02-09T06:51:48.917Z,184
2018-02-09T06:52:49.461Z,196
2018-02-09T06:53:49.108Z,208
2018-02-09T06:54:49.202Z,224
2018-02-09T06:55:50.149Z,240
2018-02-09T06:56:49.613Z,252
2018-02-09T06:57:49.820Z,268
2018-02-09T06:58:49.901Z,288
2018-02-09T06:59:50.267Z,316
2018-02-09T07:00:50.871Z,340
2018-02-09T07:01:50.978Z,360
2018-02-09T07:02:51.700Z,384
2018-02-09T07:03:51.128Z,404
2018-02-09T07:04:51.291Z,428
2018-02-09T07:05:51.391Z,448
2018-02-09T07:06:51.538Z,468
2018-02-09T07:07:51.721Z,492
2018-02-09T07:08:51.868Z,512
2018-02-09T07:09:52.363Z,540
2018-02-09T07:10:52.721Z,552
2018-02-09T07:11:52.918Z,564
2018-02-09T07:12:52.640Z,556
2018-02-09T07:13:52.619Z,560
2018-02-09T07:14:53.250Z,584
2018-02-09T07:15:53.385Z,616
2018-02-09T07:16:53.455Z,640
2018-02-09T07:17:53.805Z,676
2018-02-09T07:18:53.978Z,716
2018-02-09T07:19:54.184Z,748
2018-02-09T07:20:54.320Z,792
2018-02-09T07:21:54.743Z,824
2018-02-09T07:22:55.693Z,840
2018-02-09T07:23:55.229Z,912
2018-02-09T07:24:56.514Z,940
2018-02-09T07:25:55.982Z,972
2018-02-09T07:26:55.643Z,1008
2018-02-09T07:27:55.490Z,1060
2018-02-09T07:28:57.630Z,1088
2018-02-09T07:29:57.942Z,1200
2018-02-09T07:30:57.973Z,1236
2018-02-09T07:31:56.034Z,1256
2018-02-09T07:32:56.225Z,1256
2018-02-09T07:33:57.204Z,1344
2018-02-09T07:34:55.732Z,1384
2018-02-09T07:35:56.221Z,1448
2018-02-09T07:36:56.444Z,1448
2018-02-09T07:37:56.980Z,1436
2018-02-09T07:38:56.648Z,1496
2018-02-09T07:39:57.105Z,1440
2018-02-09T07:40:56.442Z,1388
2018-02-09T07:41:56.701Z,1448
2018-02-09T07:42:57.285Z,1592
2018-02-09T07:43:57.454Z,1756
2018-02-09T07:44:58.130Z,1816
2018-02-09T07:45:58.030Z,1916
2018-02-09T07:46:58.448Z,1916
2018-02-09T07:47:58.342Z,1920
2018-02-09T07:48:58.694Z,1968
2018-02-09T07:49:59.241Z,2056
2018-02-09T07:50:59.214Z,2156
2018-02-09T07:51:59.489Z,2108
2018-02-09T07:52:58.762Z,2148
2018-02-09T07:53:58.885Z,2204
2018-02-09T07:54:59.121Z,2200
2018-02-09T07:56:00.051Z,2136
2018-02-09T07:56:59.814Z,2076
2018-02-09T07:57:59.257Z,2236
2018-02-09T07:58:59.823Z,2392
2018-02-09T07:59:59.658Z,2524
2018-02-09T08:00:59.876Z,2492
2018-02-09T08:02:00.020Z,2496
2018-02-09T08:03:00.625Z,2572
2018-02-09T08:04:00.416Z,2712
2018-02-09T08:05:01.118Z,2628
2018-02-09T08:06:00.889Z,2608
2018-02-09T08:07:01.393Z,2640
2018-02-09T08:08:01.063Z,2708
2018-02-09T08:09:02.149Z,2744
2018-02-09T08:10:01.794Z,2656
2018-02-09T08:11:02.281Z,2668
2018-02-09T08:12:02.274Z,2768
2018-02-09T08:13:01.850Z,2932
2018-02-09T08:14:02.194Z,2924
2018-02-09T08:15:02.293Z,2888
2018-02-09T08:16:02.534Z,2832
2018-02-09T08:17:02.735Z,2980
2018-02-09T08:18:04.299Z,3148
2018-02-09T08:19:03.590Z,3180
2018-02-09T08:20:03.390Z,3124
2018-02-09T08:21:03.601Z,3136
2018-02-09T08:22:03.597Z,3264
2018-02-09T08:23:03.140Z,3272
2018-02-09T08:24:03.362Z,3472
2018-02-09T08:25:03.640Z,4012
2018-02-09T08:26:04.501Z,3732
2018-02-09T08:27:04.370Z,3720
2018-02-09T08:28:04.085Z,3700
2018-02-09T08:29:03.791Z,3872
2018-02-09T08:30:03.625Z,4000
2018-02-09T08:31:03.792Z,4056
2018-02-09T08:32:03.380Z,4048
2018-02-09T08:33:03.749Z,3912
2018-02-09T08:34:03.829Z,3860
2018-02-09T08:35:03.817Z,3840
2018-02-09T08:36:03.539Z,3848
2018-02-09T08:37:04.225Z,3872
2018-02-09T08:38:04.015Z,3936
2018-02-09T08:39:04.199Z,4380
2018-02-09T08:40:04.013Z,4156
2018-02-09T08:41:03.933Z,4300
2018-02-09T08:42:04.486Z,4400
2018-02-09T08:43:04.052Z,4508
2018-02-09T08:44:04.410Z,4572
2018-02-09T08:45:05.490Z,4916
2018-02-09T08:46:05.243Z,5540
2018-02-09T08:47:04.595Z,5484
2018-02-09T08:48:05.028Z,5740
2018-02-09T08:49:05.426Z,5908
2018-02-09T08:50:05.266Z,5928
2018-02-09T08:51:05.233Z,5816
2018-02-09T08:52:05.985Z,5604
2018-02-09T08:53:05.829Z,5316
2018-02-09T08:54:06.283Z,5224
2018-02-09T08:55:05.941Z,5264
2018-02-09T08:56:06.384Z,5548
2018-02-09T08:57:06.580Z,5440
2018-02-09T08:58:06.864Z,5624
2018-02-09T08:59:06.919Z,5880
2018-02-09T09:01:06.861Z,6580
2018-02-09T09:02:06.935Z,6572
2018-02-09T09:03:07.769Z,6044
2018-02-09T09:04:07.114Z,6044
2018-02-09T09:05:07.576Z,6464
2018-02-09T09:06:07.485Z,7076
2018-02-09T09:07:08.415Z,8300
2018-02-09T09:08:08.081Z,8500
2018-02-09T09:09:08.644Z,9180
2018-02-09T09:10:08.256Z,10112
2018-02-09T09:11:08.838Z,11236
2018-02-09T09:12:09.000Z,11196
2018-02-09T09:13:11.212Z,12320
2018-02-09T09:14:11.478Z,14272
2018-02-09T09:15:11.675Z,14368
2018-02-09T09:16:10.398Z,16736
2018-02-09T09:17:09.870Z,17088
2018-02-09T09:18:10.168Z,16128
2018-02-09T09:19:09.829Z,15712
2018-02-09T09:20:10.734Z,16352
2018-02-09T09:21:10.856Z,15360
2018-02-09T09:22:11.549Z,14944
2018-02-09T09:23:10.655Z,14208
2018-02-09T09:24:10.722Z,12724
2018-02-09T09:25:10.889Z,14560
2018-02-09T09:26:10.373Z,12012
2018-02-09T09:27:10.591Z,16608
2018-02-09T09:28:10.829Z,17184
2018-02-09T09:29:10.050Z,16640
2018-02-09T09:30:10.672Z,17408
2018-02-09T09:31:10.626Z,17760
2018-02-09T09:32:10.756Z,17280
2018-02-09T09:33:11.746Z,16576
2018-02-09T09:34:11.611Z,16480
2018-02-09T09:35:11.312Z,15616
2018-02-09T09:36:11.329Z,15808
2018-02-09T09:37:11.267Z,15328
2018-02-09T09:38:11.358Z,15488
2018-02-09T09:39:11.830Z,16544
2018-02-09T09:40:11.639Z,16928
2018-02-09T09:41:11.514Z,16416
2018-02-09T09:42:12.096Z,16704
2018-02-09T09:43:12.735Z,16032
2018-02-09T09:44:12.447Z,16640
2018-02-09T09:45:12.740Z,16800
2018-02-09T09:46:14.204Z,16704
2018-02-09T09:47:12.686Z,15680
2018-02-09T09:48:14.326Z,14496
2018-02-09T09:49:13.001Z,12968
2018-02-09T09:50:13.565Z,13440
2018-02-09T09:51:13.379Z,12828
2018-02-09T09:52:13.302Z,11108
2018-02-09T09:53:14.103Z,10368
2018-02-09T09:54:14.045Z,14400
2018-02-09T09:55:13.714Z,13664
2018-02-09T09:56:13.680Z,9016
2018-02-09T09:57:14.128Z,7840
2018-02-09T09:58:14.301Z,8372
2018-02-09T09:59:13.351Z,9056
2018-02-09T10:00:13.472Z,10216
2018-02-09T10:01:14.340Z,10544
2018-02-09T10:02:13.486Z,8836
2018-02-09T10:03:14.061Z,8628
2018-02-09T10:04:14.070Z,9100
2018-02-09T10:05:14.481Z,9608
2018-02-09T10:06:14.967Z,10116
2018-02-09T10:07:14.493Z,11272
2018-02-09T10:08:15.168Z,14464
2018-02-09T10:09:14.912Z,14304
2018-02-09T10:10:14.955Z,14592
2018-02-09T10:11:15.060Z,13632
2018-02-09T10:12:15.204Z,13012
2018-02-09T10:13:15.367Z,11096
2018-02-09T10:14:15.670Z,10056
2018-02-09T10:15:15.257Z,12096
2018-02-09T10:16:16.076Z,13344
2018-02-09T10:17:15.975Z,12832
2018-02-09T10:18:15.740Z,12432
2018-02-09T10:19:16.220Z,10548
2018-02-09T10:20:16.308Z,9052
2018-02-09T10:21:16.424Z,8608
2018-02-09T10:22:16.311Z,9696
2018-02-09T10:23:16.443Z,8076
2018-02-09T10:24:16.224Z,8328
2018-02-09T10:25:16.665Z,9260
2018-02-09T10:26:16.175Z,8888
2018-02-09T10:27:16.498Z,8448
2018-02-09T10:28:16.765Z,7676
2018-02-09T10:29:16.670Z,6996
2018-02-09T10:30:16.968Z,6456
2018-02-09T10:31:17.160Z,6164
2018-02-09T10:32:17.587Z,6088
2018-02-09T10:33:17.517Z,6184
2018-02-09T10:34:17.431Z,6808
2018-02-09T10:35:18.245Z,7676
2018-02-09T10:36:18.284Z,7164
2018-02-09T10:37:18.177Z,6956
2018-02-09T10:38:18.441Z,6700
2018-02-09T10:39:18.179Z,6596
2018-02-09T10:40:17.602Z,6516
2018-02-09T10:41:17.934Z,6460
2018-02-09T10:42:18.528Z,6336
2018-02-09T10:43:18.061Z,6224
2018-02-09T10:44:18.602Z,6020
2018-02-09T10:45:18.741Z,5904
2018-02-09T10:46:19.162Z,5696
2018-02-09T10:47:18.653Z,5592
2018-02-09T10:48:19.017Z,5388
2018-02-09T10:49:20.424Z,5212
2018-02-09T10:50:21.117Z,5036
2018-02-09T10:51:21.413Z,4916
2018-02-09T10:52:20.651Z,4620
2018-02-09T10:53:19.787Z,4664
2018-02-09T10:54:20.010Z,4620
2018-02-09T10:55:20.112Z,4516
2018-02-09T10:56:20.449Z,4536
2018-02-09T10:57:19.666Z,4568
2018-02-09T10:58:20.328Z,4488
2018-02-09T10:59:19.920Z,4608
2018-02-09T11:01:20.902Z,4668
2018-02-09T11:02:21.115Z,4588
2018-02-09T11:03:20.320Z,4512
2018-02-09T11:04:21.063Z,4712
2018-02-09T11:05:21.711Z,4580
2018-02-09T11:06:22.261Z,4792
2018-02-09T11:07:20.846Z,4812
2018-02-09T11:08:21.298Z,4860
2018-02-09T11:09:21.692Z,4568
2018-02-09T11:10:22.446Z,4656
2018-02-09T11:11:21.777Z,4724
2018-02-09T11:12:21.773Z,4592
2018-02-09T11:13:21.535Z,4436
2018-02-09T11:14:21.900Z,4472
2018-02-09T11:15:21.594Z,4560
2018-02-09T11:16:22.081Z,4576
2018-02-09T11:17:22.817Z,4528
2018-02-09T11:18:22.496Z,4688
2018-02-09T11:19:22.067Z,4780
2018-02-09T11:20:22.908Z,5324
2018-02-09T11:21:22.354Z,6000
2018-02-09T11:22:22.469Z,6212
2018-02-09T11:23:22.400Z,6220
2018-02-09T11:24:22.465Z,6168
2018-02-09T11:25:22.686Z,5836
2018-02-09T11:26:22.802Z,5780
2018-02-09T11:27:24.447Z,5456
2018-02-09T11:28:23.966Z,5276
2018-02-09T11:29:24.126Z,5464
2018-02-09T11:30:24.589Z,5696
2018-02-09T11:31:24.450Z,5588
2018-02-09T11:32:24.560Z,5616
2018-02-09T11:33:24.796Z,5944
2018-02-09T11:34:24.974Z,5812
2018-02-09T11:35:25.190Z,5676
2018-02-09T11:36:25.381Z,5544
2018-02-09T11:37:25.955Z,5636
2018-02-09T11:38:25.393Z,5848
2018-02-09T11:39:26.147Z,5976
2018-02-09T11:40:25.628Z,5808
2018-02-09T11:41:26.193Z,5408
2018-02-09T11:42:25.672Z,5052
2018-02-09T11:43:25.429Z,4828
2018-02-09T11:44:26.007Z,5024
2018-02-09T11:45:26.141Z,4960
2018-02-09T11:46:26.541Z,5020
2018-02-09T11:47:26.808Z,4952
2018-02-09T11:48:27.031Z,4820
2018-02-09T11:49:27.846Z,4828
2018-02-09T11:50:28.543Z,4972
2018-02-09T11:51:28.505Z,5136
2018-02-09T11:52:29.155Z,5296
2018-02-09T11:53:28.064Z,5452
2018-02-09T11:54:28.566Z,5464
2018-02-09T11:55:28.832Z,5452
2018-02-09T11:56:27.958Z,5588
2018-02-09T11:57:28.420Z,5600
2018-02-09T11:58:27.908Z,5268
2018-02-09T11:59:29.118Z,4800
2018-02-09T12:00:28.773Z,4532
2018-02-09T12:01:28.631Z,4504
2018-02-09T12:02:28.100Z,4708
2018-02-09T12:03:29.431Z,4552
2018-02-09T12:04:29.410Z,4672
2018-02-09T12:05:29.441Z,4868
2018-02-09T12:06:30.153Z,4652
2018-02-09T12:07:29.943Z,4748
2018-02-09T12:08:30.077Z,4920
2018-02-09T12:09:29.425Z,5000
2018-02-09T12:10:30.028Z,5112
2018-02-09T12:11:29.618Z,4832
2018-02-09T12:12:30.205Z,4600
2018-02-09T12:13:30.365Z,4504
2018-02-09T12:14:28.766Z,4172
2018-02-09T12:15:29.546Z,4068
2018-02-09T12:16:30.386Z,4248
2018-02-09T12:17:30.470Z,4232
2018-02-09T12:18:31.281Z,4120
2018-02-09T12:19:31.063Z,3900
2018-02-09T12:20:31.398Z,3824
2018-02-09T12:21:29.705Z,3804
2018-02-09T12:22:30.124Z,3752
2018-02-09T12:23:31.263Z,3624
2018-02-09T12:24:31.054Z,3540
2018-02-09T12:25:29.858Z,3536
2018-02-09T12:26:31.297Z,3532
2018-02-09T12:27:29.462Z,3512
2018-02-09T12:28:31.213Z,3464
2018-02-09T12:29:30.454Z,3464
2018-02-09T12:30:30.764Z,3516
2018-02-09T12:31:31.666Z,3560
2018-02-09T12:32:31.331Z,3520
2018-02-09T12:33:31.755Z,3472
2018-02-09T12:34:32.321Z,3384
2018-02-09T12:35:32.379Z,3292
2018-02-09T12:36:32.215Z,3236
2018-02-09T12:37:31.386Z,3192
2018-02-09T12:38:30.785Z,3192
2018-02-09T12:39:30.924Z,3204
2018-02-09T12:40:32.508Z,3176
2018-02-09T12:41:31.573Z,3152
2018-02-09T12:42:31.820Z,3108
2018-02-09T12:43:31.433Z,3076
2018-02-09T12:44:32.544Z,3032
2018-02-09T12:45:32.138Z,3012
2018-02-09T12:46:31.611Z,2996
2018-02-09T12:47:32.137Z,2988
2018-02-09T12:48:32.546Z,2976
2018-02-09T12:49:32.304Z,2956
2018-02-09T12:50:32.228Z,2924
2018-02-09T12:51:32.700Z,2888
2018-02-09T12:52:32.768Z,2884
2018-02-09T12:53:31.740Z,2876
2018-02-09T12:54:32.165Z,2856
2018-02-09T12:55:32.851Z,2832
2018-02-09T12:56:32.993Z,2824
2018-02-09T12:57:31.527Z,2812
2018-02-09T12:58:32.848Z,2788
2018-02-09T12:59:31.565Z,2764
2018-02-09T13:00:31.551Z,2732
2018-02-09T13:01:31.612Z,2712
2018-02-09T13:02:32.094Z,2692
2018-02-09T13:03:31.439Z,2696
2018-02-09T13:04:31.279Z,2688
2018-02-09T13:05:32.548Z,2656
2018-02-09T13:06:32.239Z,2608
2018-02-09T13:07:32.181Z,2596
2018-02-09T13:08:31.417Z,2584
2018-02-09T13:09:32.180Z,2568
2018-02-09T13:10:31.850Z,2552
2018-02-09T13:11:31.689Z,2528
2018-02-09T13:12:31.542Z,2520
2018-02-09T13:13:31.921Z,2512
2018-02-09T13:14:33.042Z,2512
2018-02-09T13:15:32.199Z,2496
2018-02-09T13:16:32.134Z,2472
2018-02-09T13:17:32.872Z,2440
2018-02-09T13:18:32.685Z,2424
2018-02-09T13:19:32.277Z,2408
2018-02-09T13:20:33.592Z,2380
2018-02-09T13:21:32.755Z,2352
2018-02-09T13:22:32.388Z,2340
2018-02-09T13:23:32.765Z,2332
2018-02-09T13:24:32.204Z,2328
2018-02-09T13:25:33.057Z,2320
2018-02-09T13:26:32.226Z,2316
2018-02-09T13:27:32.779Z,2312
2018-02-09T13:28:33.072Z,2304
2018-02-09T13:29:32.709Z,2292
2018-02-09T13:30:33.019Z,2268
2018-02-09T13:31:33.643Z,2248
2018-02-09T13:32:32.927Z,2244
2018-02-09T13:33:33.374Z,2244
2018-02-09T13:34:32.562Z,2240
2018-02-09T13:35:33.352Z,2236
2018-02-09T13:36:33.155Z,2212
2018-02-09T13:37:33.485Z,2188
2018-02-09T13:38:33.202Z,2172
2018-02-09T13:39:33.847Z,2180
2018-02-09T13:40:33.255Z,2192
2018-02-09T13:41:34.482Z,2180
2018-02-09T13:42:33.815Z,2148
2018-02-09T13:43:33.967Z,2128
2018-02-09T13:44:35.359Z,2112
2018-02-09T13:45:34.927Z,2108
2018-02-09T13:46:35.192Z,2100
2018-02-09T13:47:35.660Z,2080
2018-02-09T13:48:35.654Z,2048
2018-02-09T13:49:35.028Z,2020
2018-02-09T13:50:35.292Z,2012
2018-02-09T13:51:35.189Z,1996
2018-02-09T13:52:35.666Z,1984
2018-02-09T13:53:35.071Z,1980
2018-02-09T13:54:35.663Z,1964
2018-02-09T13:55:36.287Z,1952
2018-02-09T13:56:35.387Z,1956
2018-02-09T13:57:36.078Z,1964
2018-02-09T13:58:35.972Z,1972
2018-02-09T13:59:36.257Z,1968
2018-02-09T14:00:36.478Z,1944
2018-02-09T14:01:35.964Z,1924